createdAt,value
2022-09-07T00:02:20.592Z,52.34
2022-09-07T00:04:47.184Z,52.35
2022-09-07T00:07:13.962Z,52.35
2022-09-07T00:09:40.557Z,52.55
2022-09-07T00:12:06.993Z,52.81
2022-09-07T00:14:34.349Z,52.59
2022-09-07T00:17:00.956Z,52.63
2022-09-07T00:19:27.372Z,52.74
2022-09-07T00:21:53.977Z,52.85
2022-09-07T00:24:20.412Z,52.94
2022-09-07T00:26:46.986Z,53.06
2022-09-07T00:29:13.599Z,53.02
2022-09-07T00:31:40.300Z,53.09
2022-09-07T00:34:06.804Z,53.04
2022-09-07T00:36:33.403Z,53.28
2022-09-07T00:38:59.806Z,53.34
2022-09-07T00:41:27.326Z,53.42
2022-09-07T00:43:56.270Z,53.29
2022-09-07T00:46:32.030Z,53.40
2022-09-07T00:49:08.178Z,53.42
2022-09-07T00:51:40.617Z,53.54
2022-09-07T00:54:12.424Z,53.91
2022-09-07T00:56:41.017Z,53.83
2022-09-07T00:59:08.364Z,53.77
2022-09-07T01:01:35.066Z,53.85
2022-09-07T01:04:02.005Z,53.92
2022-09-07T01:06:31.183Z,53.96
2022-09-07T01:09:01.388Z,54.14
2022-09-07T01:11:28.617Z,54.06
2022-09-07T01:13:55.212Z,53.92
2022-09-07T01:16:51.078Z,54.02
2022-09-07T01:19:36.317Z,53.93
2022-09-07T01:22:27.341Z,54.19
2022-09-07T01:25:01.910Z,54.18
2022-09-07T01:27:40.742Z,54.37
2022-09-07T01:30:14.884Z,54.46
2022-09-07T01:32:55.863Z,54.59
2022-09-07T01:35:25.257Z,54.50
2022-09-07T01:38:13.883Z,54.67
2022-09-07T01:40:43.098Z,54.52
2022-09-07T01:43:12.797Z,54.55
2022-09-07T01:45:40.118Z,54.49
2022-09-07T01:48:08.336Z,54.62
2022-09-07T01:50:39.366Z,54.66
2022-09-07T01:53:05.809Z,54.76
2022-09-07T01:55:37.443Z,54.70
2022-09-07T01:58:10.693Z,54.70
2022-09-07T02:00:38.610Z,54.70
2022-09-07T02:03:47.953Z,54.88
2022-09-07T02:06:15.548Z,54.94
2022-09-07T02:08:47.043Z,55.12
2022-09-07T02:11:19.788Z,54.91
2022-09-07T02:14:00.638Z,54.93
2022-09-07T02:16:28.218Z,55.00
2022-09-07T02:19:01.599Z,54.84
2022-09-07T02:21:42.032Z,54.89
2022-09-07T02:24:15.364Z,54.71
2022-09-07T02:26:42.143Z,54.70
2022-09-07T02:29:08.750Z,54.87
2022-09-07T02:31:35.436Z,54.76
2022-09-07T02:34:03.343Z,54.66
2022-09-07T02:36:30.679Z,54.83
2022-09-07T02:38:57.324Z,54.82
2022-09-07T02:41:32.760Z,54.80
2022-09-07T02:43:59.705Z,54.78
2022-09-07T02:46:32.385Z,54.88
2022-09-07T02:49:33.013Z,54.67
2022-09-07T02:52:16.153Z,54.68
2022-09-07T02:54:54.980Z,54.89
2022-09-07T02:57:56.289Z,54.73
2022-09-07T03:00:26.232Z,54.64
2022-09-07T03:03:05.005Z,54.72
2022-09-07T03:05:45.204Z,54.68
2022-09-07T03:08:22.594Z,54.65
2022-09-07T03:10:49.186Z,54.78
2022-09-07T03:13:27.094Z,54.88
2022-09-07T03:15:56.119Z,54.91
2022-09-07T03:18:24.323Z,54.96
2022-09-07T03:20:51.044Z,54.94
2022-09-07T03:23:17.686Z,55.11
2022-09-07T03:25:44.308Z,54.77
2022-09-07T03:28:10.754Z,54.51
2022-09-07T03:30:37.390Z,54.76
2022-09-07T03:33:03.862Z,54.75
2022-09-07T03:35:30.471Z,54.65
2022-09-07T03:37:57.128Z,54.68
2022-09-07T03:40:23.720Z,54.85
2022-09-07T03:42:50.669Z,54.71
2022-09-07T03:45:17.428Z,54.47
2022-09-07T03:47:44.302Z,54.41
2022-09-07T03:50:10.952Z,54.54
2022-09-07T03:52:37.643Z,54.79
2022-09-07T03:55:04.889Z,54.81
2022-09-07T03:57:31.568Z,54.71
2022-09-07T03:59:58.017Z,54.71
2022-09-07T04:02:24.741Z,54.64
2022-09-07T04:04:51.723Z,54.74
2022-09-07T04:07:18.319Z,54.79
2022-09-07T04:09:45.139Z,54.64
2022-09-07T04:12:11.843Z,54.52
2022-09-07T04:14:38.331Z,54.39
2022-09-07T04:17:05.030Z,54.66
2022-09-07T04:19:31.483Z,54.50
2022-09-07T04:21:58.136Z,54.33
2022-09-07T04:24:24.653Z,54.22
2022-09-07T04:26:51.298Z,54.20
2022-09-07T04:29:17.750Z,54.28
2022-09-07T04:31:44.448Z,54.25
2022-09-07T04:34:11.004Z,54.33
2022-09-07T04:36:37.622Z,54.41
2022-09-07T04:39:04.706Z,54.33
2022-09-07T04:41:35.026Z,54.35
2022-09-07T04:44:02.529Z,54.48
2022-09-07T04:46:30.862Z,54.30
2022-09-07T04:48:59.089Z,54.17
2022-09-07T04:51:27.623Z,53.99
2022-09-07T04:53:55.073Z,53.78
2022-09-07T04:56:21.967Z,54.21
2022-09-07T04:58:48.591Z,53.41
2022-09-07T05:01:15.775Z,53.24
2022-09-07T05:03:42.477Z,53.42
2022-09-07T05:06:09.292Z,52.94
2022-09-07T05:08:46.702Z,52.82
2022-09-07T05:11:13.588Z,53.73
2022-09-07T05:13:40.333Z,52.41
2022-09-07T05:16:11.876Z,52.64
2022-09-07T05:18:38.632Z,51.91
2022-09-07T05:21:09.375Z,51.78
2022-09-07T05:23:38.203Z,51.30
2022-09-07T05:26:05.884Z,51.27
2022-09-07T05:28:33.510Z,52.21
2022-09-07T05:31:22.720Z,51.10
2022-09-07T05:36:37.875Z,50.10
2022-09-07T05:39:05.332Z,49.84
2022-09-07T05:41:31.984Z,49.80
2022-09-07T05:46:45.085Z,50.31
2022-09-07T05:49:11.818Z,54.49
2022-09-07T05:51:38.884Z,48.61
2022-09-07T05:54:05.749Z,46.86
2022-09-07T05:56:36.149Z,56.86
2022-09-07T05:59:02.977Z,46.78
2022-09-07T06:01:29.433Z,48.81
2022-09-07T06:04:01.708Z,45.54
2022-09-07T06:06:28.318Z,44.90
2022-09-07T06:08:54.788Z,43.22
2022-09-07T06:11:22.633Z,42.43
2022-09-07T06:13:49.346Z,41.73
2022-09-07T06:16:16.477Z,41.77
2022-09-07T06:18:44.456Z,40.71
2022-09-07T06:21:21.730Z,39.70
2022-09-07T06:23:48.652Z,39.18
2022-09-07T06:26:16.541Z,37.96
2022-09-07T06:28:49.610Z,37.13
2022-09-07T06:31:18.905Z,36.28
2022-09-07T06:33:45.790Z,36.36
2022-09-07T06:36:19.471Z,35.54
2022-09-07T06:38:47.035Z,35.35
2022-09-07T06:44:08.541Z,36.26
2022-09-07T06:49:23.521Z,32.24
2022-09-07T07:44:06.883Z,27.17
2022-09-07T07:46:34.191Z,27.28
2022-09-07T07:49:00.794Z,26.79
2022-09-07T07:51:27.422Z,26.05
2022-09-07T07:53:54.440Z,24.74
2022-09-07T07:56:22.128Z,25.23
2022-09-07T07:58:48.931Z,26.18
2022-09-07T08:01:16.638Z,25.05
2022-09-07T08:03:44.157Z,24.53
2022-09-07T08:06:15.415Z,24.95
2022-09-07T08:08:42.729Z,26.31
2022-09-07T08:11:11.056Z,24.86
2022-09-07T08:13:39.076Z,25.28
2022-09-07T08:16:05.950Z,24.55
2022-09-07T08:18:33.382Z,23.99
2022-09-07T08:21:01.968Z,23.54
2022-09-07T08:23:32.158Z,23.91
2022-09-07T08:25:59.083Z,22.57
2022-09-07T08:28:29.690Z,21.94
2022-09-07T08:30:56.357Z,22.64
2022-09-07T08:33:22.980Z,22.35
2022-09-07T08:36:19.362Z,22.80
2022-09-07T08:38:45.991Z,22.89
2022-09-07T08:41:34.325Z,22.42
2022-09-07T08:44:06.566Z,21.94
2022-09-07T08:46:40.249Z,22.20
2022-09-07T08:49:08.167Z,22.51
2022-09-07T08:51:42.107Z,23.39
2022-09-07T08:54:12.630Z,23.24
2022-09-07T08:57:20.649Z,22.08
2022-09-07T09:00:02.459Z,22.33
2022-09-07T09:02:32.575Z,22.31
2022-09-07T09:05:18.491Z,22.74
2022-09-07T09:07:57.866Z,23.08
2022-09-07T09:10:45.812Z,22.43
2022-09-07T09:13:19.491Z,22.68
2022-09-07T09:38:18.252Z,20.36
2022-09-07T09:40:51.735Z,20.71
2022-09-07T09:43:20.347Z,20.85
2022-09-07T09:48:37.447Z,21.11
2022-09-07T09:53:58.185Z,21.29
2022-09-07T09:56:38.305Z,20.56
2022-09-07T10:05:35.354Z,21.51
2022-09-07T10:08:02.681Z,22.31
2022-09-07T10:10:29.690Z,21.66
2022-09-07T10:12:56.270Z,21.59
2022-09-07T10:15:41.242Z,23.40
2022-09-07T10:18:22.763Z,21.80
2022-09-07T10:20:49.562Z,21.29
2022-09-07T10:23:23.474Z,21.55
2022-09-07T10:25:50.155Z,21.12
2022-09-07T10:28:18.008Z,21.06
2022-09-07T10:31:09.878Z,20.77
2022-09-07T10:37:02.420Z,20.31
2022-09-07T10:40:01.084Z,20.14
2022-09-07T10:42:29.749Z,19.71
2022-09-07T10:45:18.067Z,20.42
2022-09-07T10:47:57.355Z,20.62
2022-09-07T10:50:23.992Z,20.32
2022-09-07T10:53:23.631Z,20.07
2022-09-07T10:56:05.012Z,20.31
2022-09-07T11:02:03.870Z,20.32
2022-09-07T11:04:44.415Z,20.79
2022-09-07T11:07:30.103Z,21.39
2022-09-07T11:09:59.368Z,21.45
2022-09-07T11:12:29.270Z,20.73
2022-09-07T11:15:08.484Z,20.95
2022-09-07T11:18:03.733Z,21.28
2022-09-07T11:20:32.385Z,21.59
2022-09-07T11:23:03.249Z,21.63
2022-09-07T11:25:46.535Z,21.79
2022-09-07T11:28:16.184Z,22.85
2022-09-07T11:30:46.208Z,23.09
2022-09-07T11:33:20.011Z,22.51
2022-09-07T11:35:59.750Z,22.60
2022-09-07T11:38:29.105Z,22.05
2022-09-07T11:41:12.613Z,21.66
2022-09-07T11:43:43.112Z,21.39
2022-09-07T11:46:32.573Z,22.89
2022-09-07T11:48:59.307Z,22.38
2022-09-07T11:51:44.787Z,23.08
2022-09-07T11:54:32.106Z,23.34
2022-09-07T11:57:14.919Z,24.18
2022-09-07T12:00:13.981Z,23.57
2022-09-07T12:03:00.930Z,23.09
2022-09-07T12:06:00.103Z,23.76
2022-09-07T12:08:41.841Z,23.83
2022-09-07T12:11:59.729Z,24.10
2022-09-07T12:14:31.907Z,22.75
2022-09-07T12:17:08.240Z,22.31
2022-09-07T12:19:35.183Z,22.34
2022-09-07T12:22:02.425Z,22.46
2022-09-07T12:24:32.397Z,22.53
2022-09-07T12:27:22.427Z,21.92
2022-09-07T12:29:50.275Z,22.57
2022-09-07T12:32:57.117Z,23.64
2022-09-07T12:35:30.958Z,24.49
2022-09-07T12:38:01.048Z,24.22
2022-09-07T12:40:27.797Z,23.62
2022-09-07T12:43:12.913Z,24.24
2022-09-07T12:45:39.409Z,24.33
2022-09-07T12:48:15.276Z,24.33
2022-09-07T12:51:04.050Z,24.26
2022-09-07T12:54:00.305Z,24.54
2022-09-07T12:59:50.148Z,25.59
2022-09-07T13:02:38.646Z,25.02
2022-09-07T13:05:11.230Z,25.90
2022-09-07T13:07:40.806Z,25.87
2022-09-07T13:10:50.342Z,25.42
2022-09-07T13:14:02.600Z,24.84
2022-09-07T13:16:11.773Z,25.26
2022-09-07T13:18:40.436Z,25.86
2022-09-07T13:21:07.006Z,25.60
2022-09-07T13:23:40.364Z,25.88
2022-09-07T13:26:11.227Z,25.96
2022-09-07T13:28:56.018Z,25.62
2022-09-07T13:35:03.769Z,27.25
2022-09-07T13:37:43.044Z,25.58
2022-09-07T13:40:10.753Z,25.37
2022-09-07T13:42:37.499Z,26.17
2022-09-07T13:45:07.273Z,26.62
2022-09-07T13:47:37.949Z,26.33
2022-09-07T13:50:10.585Z,26.44
2022-09-07T13:52:52.314Z,26.95
2022-09-07T13:55:38.947Z,27.07
2022-09-07T13:58:17.125Z,26.49
2022-09-07T14:01:13.034Z,27.56
2022-09-07T14:03:47.909Z,26.89
2022-09-07T14:06:20.478Z,27.01
2022-09-07T14:08:54.777Z,27.42
2022-09-07T14:11:25.376Z,27.72
2022-09-07T14:14:14.151Z,28.06
2022-09-07T14:16:42.708Z,28.47
2022-09-07T14:19:20.864Z,28.05
2022-09-07T14:22:05.224Z,27.73
2022-09-07T14:25:02.285Z,28.02
2022-09-07T14:27:35.815Z,28.59
2022-09-07T14:33:34.742Z,28.25
2022-09-07T14:36:13.107Z,28.27
2022-09-07T14:41:38.431Z,28.41
2022-09-07T14:44:05.133Z,28.47
2022-09-07T14:46:35.387Z,28.23
2022-09-07T14:49:07.825Z,28.11
2022-09-07T14:51:36.624Z,27.65
2022-09-07T14:54:05.969Z,28.21
2022-09-07T14:56:37.230Z,27.71
2022-09-07T14:59:43.260Z,27.65
2022-09-07T15:02:18.859Z,27.97
2022-09-07T15:04:46.453Z,27.96
2022-09-07T15:07:28.954Z,27.97
2022-09-07T15:09:55.700Z,28.26
2022-09-07T15:12:37.827Z,28.00
2022-09-07T15:15:37.097Z,28.06
2022-09-07T15:18:08.904Z,28.30
2022-09-07T15:20:45.623Z,28.12
2022-09-07T15:23:17.180Z,28.53
2022-09-07T15:25:50.510Z,28.72
2022-09-07T15:34:10.122Z,28.46
2022-09-07T15:36:37.677Z,28.53
2022-09-07T15:39:04.426Z,28.53
2022-09-07T15:41:31.233Z,28.51
2022-09-07T15:43:58.047Z,28.57
2022-09-07T15:46:37.200Z,28.51
2022-09-07T15:49:04.020Z,29.40
2022-09-07T15:54:17.482Z,28.89
2022-09-07T15:57:48.097Z,28.72
2022-09-07T15:59:30.780Z,29.21
2022-09-07T16:01:58.233Z,29.00
2022-09-07T16:04:25.415Z,29.11
2022-09-07T16:06:52.591Z,29.41
2022-09-07T16:09:21.773Z,29.51
2022-09-07T16:11:50.085Z,29.61
2022-09-07T16:14:17.509Z,29.74
2022-09-07T16:19:34.834Z,30.16
2022-09-07T16:22:02.165Z,30.36
2022-09-07T16:24:28.797Z,30.32
2022-09-07T16:26:58.791Z,30.18
2022-09-07T16:40:09.905Z,30.88
2022-09-07T16:42:37.515Z,31.05
2022-09-07T16:47:51.425Z,31.23
2022-09-07T16:50:18.066Z,31.24
2022-09-07T16:52:45.916Z,31.73
2022-09-07T16:55:15.681Z,31.55
2022-09-07T17:00:32.394Z,31.57
2022-09-07T17:03:00.583Z,32.14
2022-09-07T17:05:27.341Z,31.82
2022-09-07T17:07:54.003Z,31.92
2022-09-07T17:10:20.642Z,31.80
2022-09-07T17:12:47.226Z,32.17
2022-09-07T17:15:13.930Z,33.93
2022-09-07T17:17:40.520Z,32.53
2022-09-07T17:20:09.121Z,32.39
2022-09-07T17:22:35.745Z,33.27
2022-09-07T17:25:02.380Z,33.14
2022-09-07T17:27:29.202Z,34.11
2022-09-07T17:29:57.054Z,32.77
2022-09-07T17:32:26.250Z,33.50
2022-09-07T17:34:53.567Z,33.24
2022-09-07T17:37:20.261Z,34.44
2022-09-07T17:39:46.948Z,34.63
2022-09-07T17:42:13.687Z,35.69
2022-09-07T17:44:40.338Z,34.24
2022-09-07T17:47:07.037Z,35.84
2022-09-07T17:49:33.876Z,36.09
2022-09-07T17:52:01.153Z,35.68
2022-09-07T17:54:27.969Z,34.78
2022-09-07T17:56:54.601Z,35.73
2022-09-07T18:02:09.745Z,34.77
2022-09-07T18:04:36.415Z,35.03
2022-09-07T18:07:03.347Z,36.46
2022-09-07T18:09:30.105Z,37.31
2022-09-07T18:11:56.696Z,36.74
2022-09-07T18:14:23.453Z,35.53
2022-09-07T18:16:50.284Z,36.14
2022-09-07T18:19:18.384Z,36.70
2022-09-07T18:21:45.260Z,35.97
2022-09-07T18:24:14.069Z,35.38
2022-09-07T18:26:40.829Z,36.66
2022-09-07T18:29:18.686Z,36.83
2022-09-07T18:31:54.216Z,35.96
2022-09-07T18:34:21.050Z,35.60
2022-09-07T18:36:47.730Z,35.96
2022-09-07T18:39:14.486Z,37.32
2022-09-07T18:41:42.181Z,35.60
2022-09-07T18:46:55.613Z,36.41
2022-09-07T18:49:22.198Z,36.06
2022-09-07T18:54:35.406Z,36.41
2022-09-07T18:57:02.073Z,37.57
2022-09-07T18:59:29.846Z,36.89
2022-09-07T19:02:01.313Z,38.70
2022-09-07T19:05:49.621Z,37.42
2022-09-07T19:07:17.098Z,37.35
2022-09-07T19:09:43.733Z,37.37
2022-09-07T19:12:10.546Z,37.99
2022-09-07T19:14:37.535Z,38.03
2022-09-07T19:17:04.418Z,38.66
2022-09-07T19:19:31.109Z,38.70
2022-09-07T19:21:58.349Z,38.62
2022-09-07T19:24:25.827Z,38.26
2022-09-07T19:26:54.765Z,38.55
2022-09-07T19:29:25.041Z,38.74
2022-09-07T19:32:04.721Z,38.53
2022-09-07T19:34:32.112Z,38.71
2022-09-07T19:36:59.111Z,39.24
2022-09-07T19:39:25.887Z,39.43
2022-09-07T19:41:52.493Z,39.53
2022-09-07T19:44:19.155Z,39.41
2022-09-07T19:46:45.974Z,40.00
2022-09-07T19:49:13.235Z,39.75
2022-09-07T19:51:40.241Z,39.75
2022-09-07T19:54:07.216Z,39.58
2022-09-07T19:56:34.042Z,39.53
2022-09-07T19:59:00.682Z,39.95
2022-09-07T20:01:28.340Z,39.19
2022-09-07T20:03:56.566Z,39.43
2022-09-07T20:06:23.231Z,39.54
2022-09-07T20:08:49.834Z,39.55
2022-09-07T20:11:17.151Z,39.99
2022-09-07T20:13:44.074Z,40.45
2022-09-07T20:16:13.160Z,40.54
2022-09-07T20:18:39.860Z,40.04
2022-09-07T20:21:07.776Z,40.28
2022-09-07T20:23:35.088Z,40.58
2022-09-07T20:26:03.294Z,40.80
2022-09-07T20:28:29.900Z,41.31
2022-09-07T20:30:56.548Z,41.03
2022-09-07T20:33:23.339Z,41.48
2022-09-07T20:35:50.240Z,41.74
2022-09-07T20:38:17.359Z,41.98
2022-09-07T20:40:54.257Z,42.06
2022-09-07T20:43:21.016Z,41.89
2022-09-07T20:45:50.286Z,41.62
2022-09-07T20:48:17.071Z,41.97
2022-09-07T20:50:43.686Z,41.97
2022-09-07T20:53:10.332Z,41.79
2022-09-07T20:55:36.953Z,41.98
2022-09-07T20:58:03.608Z,41.79
2022-09-07T21:00:30.336Z,41.94
2022-09-07T21:02:56.966Z,41.93
2022-09-07T21:05:23.583Z,42.20
2022-09-07T21:07:50.200Z,42.52
2022-09-07T21:10:17.156Z,42.61
2022-09-07T21:12:43.930Z,43.01
2022-09-07T21:15:10.686Z,42.61
2022-09-07T21:17:38.806Z,43.21
2022-09-07T21:20:06.220Z,43.37
2022-09-07T21:22:32.814Z,43.55
2022-09-07T21:24:59.487Z,43.49
2022-09-07T21:27:26.107Z,43.51
2022-09-07T21:29:52.665Z,43.68
2022-09-07T21:32:19.334Z,44.20
2022-09-07T21:34:45.919Z,43.63
2022-09-07T21:37:12.784Z,43.64
2022-09-07T21:39:39.557Z,43.92
2022-09-07T21:42:06.265Z,43.68
2022-09-07T21:44:32.826Z,43.72
2022-09-07T21:46:59.605Z,43.99
2022-09-07T21:49:26.297Z,43.54
2022-09-07T21:51:52.941Z,43.35
2022-09-07T21:54:22.025Z,43.66
2022-09-07T21:56:49.288Z,43.75
2022-09-07T21:59:15.946Z,43.86
2022-09-07T22:01:42.887Z,43.72
2022-09-07T22:04:09.806Z,43.90
2022-09-07T22:06:37.689Z,44.40
2022-09-07T22:09:04.994Z,44.52
2022-09-07T22:11:31.641Z,44.68
2022-09-07T22:14:02.667Z,44.72
2022-09-07T22:38:07.440Z,45.08
2022-09-07T22:40:34.111Z,44.68
2022-09-07T22:43:00.737Z,44.65
2022-09-07T22:45:27.738Z,44.91
2022-09-07T22:47:54.339Z,44.80
2022-09-07T22:50:20.963Z,44.95
2022-09-07T22:52:47.537Z,45.08
2022-09-07T22:55:14.000Z,45.37
2022-09-07T22:57:40.595Z,45.47
2022-09-07T23:00:08.008Z,45.75
2022-09-07T23:02:34.578Z,45.66
2022-09-07T23:05:01.078Z,45.71
2022-09-07T23:07:27.762Z,45.99
2022-09-07T23:09:54.712Z,46.23
2022-09-07T23:12:21.489Z,46.37
2022-09-07T23:14:48.071Z,46.25
2022-09-07T23:17:14.711Z,46.22
2022-09-07T23:19:41.298Z,46.34
2022-09-07T23:22:07.848Z,46.64
2022-09-07T23:24:35.250Z,46.70
2022-09-07T23:27:01.848Z,46.39
2022-09-07T23:29:28.446Z,46.42
2022-09-07T23:31:55.275Z,46.67
2022-09-07T23:34:21.921Z,46.63
2022-09-07T23:36:48.937Z,46.68
2022-09-07T23:39:15.563Z,46.86
2022-09-07T23:41:42.228Z,47.02
2022-09-07T23:44:08.819Z,46.87
2022-09-07T23:46:35.427Z,47.10
2022-09-07T23:49:02.184Z,47.23
2022-09-07T23:51:28.750Z,47.47
2022-09-07T23:53:55.181Z,47.77
2022-09-07T23:56:24.368Z,47.92
2022-09-07T23:58:51.162Z,48.23
